الصفحة الرئيسية
METAR-TAF:

METAR-TAF

مطار :

جزر برمودا, جزر برمودا

دائرة عرض: 32-22N, خط طول: 064-41W, ارتفاع: 6 متر

مراقبة الطقس الحالي

تاريخ ووقت الإصدار 12ساعات و 33 دقيقة قبل الساعة 04:55UTC
ريح 4 عقدة من الجنوب
درجة الحرارة 27°درجة مئوية
الرطوبة 79%
ضغط 1022 hPa
الرؤية 10 كم أو أكثر
غيوم قليلة على ارتفاع 2200 قدم
غيوم متفرقة على ارتفاع 23000 قدم
غيوم مفككة على ارتفاع 30000 قدم

METAR: TXKF 210455Z 19004KT 9999 FEW022 SCT230 BKN300 27/23 Q1022 RMK LTG DSNT SE

زمن: 14:28 (17:28 UTC)

توقعات

تاريخ ووقت الإصدار 17ساعات و 53 دقيقة قبل الساعة 23:35UTC
التوقعات صالحة من21 الساعة 00 UTC إلى 21 الساعة 24 UTC
ريح 6 عقدة من الجنوب/الجنوب الغربي
الرؤية 10 كم أو أكثر
غيوم متفرقة على ارتفاع 2000 قدم
غيوم مفككة على ارتفاع 30000 قدم
زخات في الجوار
نظرية الاحتمالات 30% :
مؤقت
من 21 الساعة 15 UTC إلى 21 الساعة 21 UTC
الرؤية: 6000 متر
غيوم مفككة على ارتفاع 1800 قدم
زخات من المطر

TAF: TXKF 202335Z 2100/2124 21006KT 9999 VCSH SCT020 BKN300 PROB30 TEMPO 2115/2121 6000 SHRA BKN018

أرصاد الطقس والتوقعات من أكثر من 4000 مطار (تقارير الطقس للمطار METAR والتنبؤ بالطقس بالمطارTAF).

المحطات المتاحة هي النقط الصفراء والحمراء على الخريطة.

حرك المؤشر فوق النقطة لمعرفة اسم المحطة.

ثم انقر لمعرفة أرصاد وتوقعات الطقس.

لتغيير الخارطة: اضغط على الأزرار الخضراء مع رمز الصليب الأسود للتكبير. على الزر الأخضر مع شرطة للتصغير، أو على الأسهم الخضراء للخرائط المجاورة.


METAR-TAF: